Time;durP1;ratioP1;P1;durP2;ratioP2;P2;SDS_P1;SDS_P2;PMS_P1;PMS_P2;Temp;Humidity;BMP_temperature;BMP_pressure;BME280_temperature;BME280_humidity;BME280_pressure;Samples;Min_cycle;Max_cycle;Signal;HPM_P1;HPM_P2
2024/01/21 00:00:54;;;;;;;0.75;0.63;;;;;;;-1.59;100.00;61836.69;5085045;28;20221;-76
2024/01/21 00:03:21;;;;;;;0.65;0.65;;;;;;;-1.52;100.00;61846.34;5092933;28;20200;-77
2024/01/21 00:05:48;;;;;;;0.90;0.68;;;;;;;-1.56;100.00;61840.28;5090438;28;20276;-77
2024/01/21 00:08:17;;;;;;;1.08;0.98;;;;;;;-1.86;100.00;61811.56;5085978;28;20229;-77
2024/01/21 00:10:43;;;;;;;1.98;0.80;;;;;;;-1.83;100.00;61812.63;5082950;28;20401;-77
2024/01/21 00:13:10;;;;;;;0.80;0.80;;;;;;;-1.82;100.00;61813.66;5077135;28;20566;-77
2024/01/21 00:15:37;;;;;;;0.70;0.70;;;;;;;-1.74;100.00;61821.84;5085026;28;20285;-76
2024/01/21 00:18:05;;;;;;;0.60;0.60;;;;;;;-1.65;100.00;61830.53;5083991;28;20509;-78
2024/01/21 00:20:32;;;;;;;0.57;0.55;;;;;;;-1.70;100.00;61825.94;5089674;28;20224;-77
2024/01/21 00:22:59;;;;;;;0.60;0.60;;;;;;;-1.81;100.00;61814.19;5095344;28;20234;-77
2024/01/21 00:25:27;;;;;;;0.68;0.68;;;;;;;-1.82;100.00;61816.16;5085834;28;20212;-76
2024/01/21 00:27:54;;;;;;;1.42;1.33;;;;;;;-1.66;100.00;61835.03;5081745;28;20323;-77
2024/01/21 00:30:21;;;;;;;2.75;2.55;;;;;;;-1.62;100.00;61834.13;5090983;28;20263;-77
2024/01/21 00:32:48;;;;;;;4.90;3.42;;;;;;;-1.55;100.00;61841.28;5088904;28;20248;-80
2024/01/21 00:35:15;;;;;;;2.90;2.70;;;;;;;-1.54;100.00;61842.31;5087685;28;20216;-77
2024/01/21 00:37:42;;;;;;;3.13;2.75;;;;;;;-1.60;100.00;61836.16;5087252;28;20211;-78
2024/01/21 00:40:09;;;;;;;2.85;2.42;;;;;;;-1.58;100.00;61835.22;5082264;28;20225;-76
2024/01/21 00:42:38;;;;;;;3.55;2.50;;;;;;;-1.69;100.00;61824.47;5078945;28;20442;-78
2024/01/21 00:45:05;;;;;;;2.70;2.50;;;;;;;-1.61;100.00;61835.16;5084536;28;20224;-77
2024/01/21 00:47:35;;;;;;;2.28;2.08;;;;;;;-1.52;100.00;61843.84;5086353;28;20647;-77
2024/01/21 00:50:03;;;;;;;5.43;3.13;;;;;;;-1.42;100.00;61846.59;5084804;28;20235;-78
2024/01/21 00:52:30;;;;;;;2.53;2.33;;;;;;;-1.34;100.00;61869.75;5085903;28;20227;-76
2024/01/21 00:54:57;;;;;;;2.38;2.10;;;;;;;-1.39;100.00;61859.63;5088582;28;20227;-77
2024/01/21 00:57:23;;;;;;;3.83;3.13;;;;;;;-1.51;100.00;61852.34;5088623;28;20557;-77
2024/01/21 00:59:52;;;;;;;2.70;2.42;;;;;;;-1.54;100.00;61841.81;5084359;28;20262;-77
2024/01/21 01:02:19;;;;;;;3.25;2.92;;;;;;;-1.67;100.00;61828.50;5082639;28;20201;-78
2024/01/21 01:04:45;;;;;;;6.35;4.43;;;;;;;-1.82;100.00;61815.66;5073817;28;20270;-77
2024/01/21 01:07:12;;;;;;;4.57;3.50;;;;;;;-1.87;100.00;61808.56;5086438;28;20255;-76
2024/01/21 01:09:39;;;;;;;6.18;3.95;;;;;;;-1.82;100.00;61813.66;5078767;28;20312;-77
2024/01/21 01:12:07;;;;;;;3.95;3.10;;;;;;;-1.75;100.00;61820.31;5083584;28;20197;-77
2024/01/21 01:14:34;;;;;;;5.22;3.90;;;;;;;-1.72;100.00;61821.41;5087401;28;20229;-77
2024/01/21 01:17:02;;;;;;;5.78;3.63;;;;;;;-1.81;100.00;61816.69;5091403;28;20207;-77
2024/01/21 01:19:29;;;;;;;4.47;4.07;;;;;;;-1.81;100.00;61811.69;5084670;28;20221;-77
2024/01/21 01:21:56;;;;;;;4.05;3.38;;;;;;;-1.65;100.00;61833.56;5087143;28;20227;-77
2024/01/21 01:24:23;;;;;;;4.03;3.58;;;;;;;-1.57;100.00;61839.22;5086933;28;20251;-78
2024/01/21 01:26:49;;;;;;;4.65;4.05;;;;;;;-1.53;100.00;61842.81;5082994;28;20509;-76
2024/01/21 01:29:16;;;;;;;4.82;3.67;;;;;;;-1.44;100.00;61849.53;5073042;28;20217;-77
2024/01/21 01:31:43;;;;;;;5.57;3.60;;;;;;;-1.41;100.00;61855.09;5086297;28;20209;-77
2024/01/21 01:34:12;;;;;;;6.57;4.70;;;;;;;-1.34;100.00;61865.28;5086136;28;20622;-77
2024/01/21 01:36:39;;;;;;;4.40;3.63;;;;;;;-1.40;100.00;61856.13;5088133;28;20228;-77
2024/01/21 01:39:07;;;;;;;4.05;3.65;;;;;;;-1.45;100.00;61854.00;5085783;28;20212;-77
2024/01/21 01:41:34;;;;;;;3.50;3.13;;;;;;;-1.39;100.00;61857.16;5083408;28;20201;-77
2024/01/21 01:44:02;;;;;;;5.43;3.58;;;;;;;-1.38;100.00;61858.69;5092380;28;20212;-78
2024/01/21 01:46:29;;;;;;;4.22;3.38;;;;;;;-1.43;100.00;61848.56;5082522;28;20203;-77
2024/01/21 01:48:56;;;;;;;3.83;3.53;;;;;;;-1.48;100.00;61850.44;5086318;28;20243;-78
2024/01/21 01:51:25;;;;;;;4.32;3.38;;;;;;;-1.39;100.00;61857.66;5086204;28;20250;-77
2024/01/21 01:53:51;;;;;;;5.18;3.90;;;;;;;-1.35;100.00;61863.75;5084388;28;20274;-78
2024/01/21 01:56:18;;;;;;;4.22;3.55;;;;;;;-1.35;100.00;61866.72;5074221;28;20284;-77
2024/01/21 01:58:45;;;;;;;2.95;2.75;;;;;;;-1.76;100.00;61819.78;5082710;28;20216;-77
2024/01/21 02:01:12;;;;;;;2.55;2.30;;;;;;;-1.87;100.00;61811.06;5085319;28;20232;-77
2024/01/21 02:03:39;;;;;;;3.05;2.75;;;;;;;-1.97;100.00;61800.81;5082077;28;20193;-77
2024/01/21 02:06:06;;;;;;;5.38;2.72;;;;;;;-1.97;100.00;61798.34;5073381;28;20221;-77
2024/01/21 02:08:35;;;;;;;2.53;1.70;;;;;;;-2.05;100.00;61789.66;5086195;28;20232;-79
2024/01/21 02:11:03;;;;;;;1.92;1.58;;;;;;;-1.96;100.00;61801.84;5085718;28;20220;-78
2024/01/21 02:13:29;;;;;;;1.73;1.52;;;;;;;-2.04;100.00;61791.19;5083403;28;20205;-77
2024/01/21 02:15:58;;;;;;;1.67;1.58;;;;;;;-1.87;100.00;61808.03;5087421;28;20232;-77
2024/01/21 02:18:25;;;;;;;1.73;1.60;;;;;;;-1.92;100.00;61800.94;5082398;28;20193;-76
2024/01/21 02:20:53;;;;;;;2.05;1.83;;;;;;;-1.97;100.00;61798.34;5074157;28;20233;-77
2024/01/21 02:23:21;;;;;;;2.75;2.58;;;;;;;-2.01;100.00;61794.25;5084828;28;20239;-75
2024/01/21 02:25:48;;;;;;;2.60;2.40;;;;;;;-2.15;100.00;61781.91;5084746;28;20225;-77
2024/01/21 02:28:15;;;;;;;4.30;3.25;;;;;;;-2.25;100.00;61769.69;5084868;28;20236;-76
2024/01/21 02:30:42;;;;;;;2.53;2.33;;;;;;;-2.16;100.00;61776.41;5083995;28;20242;-77
2024/01/21 02:33:09;;;;;;;2.80;1.98;;;;;;;-2.07;100.00;61790.59;5084003;28;20207;-77
2024/01/21 02:35:37;;;;;;;2.78;2.58;;;;;;;-2.05;100.00;61790.13;5073390;28;20224;-78
2024/01/21 02:38:04;;;;;;;2.40;2.20;;;;;;;-2.03;100.00;61791.66;5084593;28;20451;-76
2024/01/21 02:40:33;;;;;;;3.30;3.00;;;;;;;-2.04;100.00;61790.66;5088849;28;20225;-76
2024/01/21 02:42:59;;;;;;;5.35;2.75;;;;;;;-2.05;100.00;61790.13;5083781;28;20446;-76
2024/01/21 02:45:26;;;;;;;3.28;3.03;;;;;;;-2.06;100.00;61794.13;5084548;28;20226;-77
2024/01/21 02:47:53;;;;;;;4.93;3.25;;;;;;;-2.05;100.00;61789.66;5083045;28;20271;-77
2024/01/21 02:50:20;;;;;;;5.18;2.78;;;;;;;-2.00;100.00;61797.75;5071759;28;20248;-77
2024/01/21 02:52:47;;;;;;;2.97;2.60;;;;;;;-2.06;100.00;61793.59;5085329;28;20196;-77
2024/01/21 02:55:14;;;;;;;2.80;2.60;;;;;;;-2.14;100.00;61782.94;5089302;28;20228;-77
2024/01/21 02:57:42;;;;;;;3.20;2.90;;;;;;;-2.14;100.00;61780.44;5084902;28;20203;-77
2024/01/21 03:00:10;;;;;;;2.85;2.65;;;;;;;-2.15;100.00;61782.41;5078822;28;20391;-77
2024/01/21 03:02:37;;;;;;;3.15;2.95;;;;;;;-2.11;100.00;61783.50;5097353;28;20188;-77
2024/01/21 03:05:04;;;;;;;3.40;3.10;;;;;;;-2.11;100.00;61783.50;5093912;28;20272;-78
2024/01/21 03:07:30;;;;;;;5.03;3.67;;;;;;;-2.16;100.00;61780.88;5086546;28;20228;-78
2024/01/21 03:09:57;;;;;;;4.78;3.47;;;;;;;-2.16;100.00;61780.88;5088406;28;20296;-77
2024/01/21 03:12:24;;;;;;;4.80;3.45;;;;;;;-2.22;100.00;61772.25;5088402;28;20217;-79
2024/01/21 03:14:53;;;;;;;5.22;3.20;;;;;;;-2.26;100.00;61773.16;5088595;28;20220;-77
2024/01/21 03:17:19;;;;;;;3.25;2.70;;;;;;;-2.29;100.00;61765.09;5089268;28;20219;-77
2024/01/21 03:19:46;;;;;;;3.88;3.03;;;;;;;-2.33;100.00;61761.53;5085894;28;20596;-77
2024/01/21 03:22:13;;;;;;;3.83;3.25;;;;;;;-2.39;100.00;61758.38;5078937;28;20204;-78
2024/01/21 03:24:40;;;;;;;5.32;3.38;;;;;;;-2.46;100.00;61746.25;5087088;28;20216;-77
2024/01/21 03:27:07;;;;;;;4.93;4.22;;;;;;;-2.49;100.00;61748.16;5095144;28;20205;-78
2024/01/21 03:29:34;;;;;;;5.32;3.92;;;;;;;-2.55;100.00;61736.53;5091452;28;20549;-77
2024/01/21 03:32:02;;;;;;;5.15;4.22;;;;;;;-2.58;100.00;61733.97;5088651;28;20238;-78
2024/01/21 03:34:29;;;;;;;7.57;5.45;;;;;;;-2.62;100.00;61731.88;5087252;28;20479;-77
2024/01/21 03:36:56;;;;;;;9.18;5.47;;;;;;;-2.70;100.00;61724.22;5087594;28;20265;-79
2024/01/21 03:39:23;;;;;;;10.32;6.25;;;;;;;-2.76;100.00;61718.06;5089051;28;20232;-78
2024/01/21 03:41:50;;;;;;;8.48;5.40;;;;;;;-2.85;100.00;61708.38;5087579;28;20215;-77
2024/01/21 03:44:16;;;;;;;12.00;7.53;;;;;;;-2.83;100.00;61712.91;5087983;28;20220;-78
2024/01/21 03:46:43;;;;;;;14.63;7.97;;;;;;;-2.94;100.00;61694.72;5088731;28;20209;-77
2024/01/21 03:49:12;;;;;;;19.65;10.10;;;;;;;-2.97;100.00;61706.56;5093442;28;20246;-79
2024/01/21 03:51:38;;;;;;;46.15;17.33;;;;;;;-3.00;100.00;61690.56;5085523;28;20200;-78
2024/01/21 03:54:05;;;;;;;38.33;13.18;;;;;;;-3.08;100.00;61694.81;5086591;28;20201;-77
2024/01/21 03:56:32;;;;;;;19.33;9.45;;;;;;;-3.17;100.00;61681.16;5087979;28;20200;-77
2024/01/21 03:58:59;;;;;;;6.35;5.07;;;;;;;-3.17;100.00;61675.66;5075786;28;20197;-77
2024/01/21 04:01:26;;;;;;;5.55;5.00;;;;;;;-3.25;100.00;61668.03;5086678;28;20201;-78
2024/01/21 04:03:53;;;;;;;5.03;4.57;;;;;;;-3.28;100.00;61664.44;5089160;28;20212;-76
2024/01/21 04:06:22;;;;;;;4.28;3.67;;;;;;;-3.37;100.00;61655.25;5088185;28;20217;-77
2024/01/21 04:08:49;;;;;;;3.97;3.60;;;;;;;-3.45;100.00;61650.06;5087728;28;20232;-77
2024/01/21 04:11:16;;;;;;;3.83;2.85;;;;;;;-3.59;100.00;61636.28;5091916;28;20232;-81
2024/01/21 04:13:42;;;;;;;3.78;3.30;;;;;;;-3.70;100.00;61627.03;5089971;28;20200;-80
2024/01/21 04:16:09;;;;;;;5.95;3.55;;;;;;;-3.68;100.00;61627.13;5090773;28;20240;-79
2024/01/21 04:18:37;;;;;;;5.55;3.67;;;;;;;-3.76;100.00;61618.94;5084167;28;20224;-77
2024/01/21 04:21:04;;;;;;;4.63;3.22;;;;;;;-3.77;100.00;61614.91;5087090;28;20227;-78
2024/01/21 04:23:32;;;;;;;3.45;3.15;;;;;;;-3.96;100.00;61595.53;5090195;28;20268;-79
2024/01/21 04:25:59;;;;;;;4.85;3.15;;;;;;;-3.88;100.00;61601.19;5087927;28;20229;-77
2024/01/21 04:28:26;;;;;;;5.60;4.03;;;;;;;-4.02;100.00;61586.91;5086296;28;20242;-77
2024/01/21 04:30:53;;;;;;;2.75;2.55;;;;;;;-3.95;100.00;61599.03;5090951;28;20355;-78
2024/01/21 04:33:20;;;;;;;3.75;3.45;;;;;;;-3.97;100.00;61601.97;5084619;28;20201;-77
2024/01/21 04:35:47;;;;;;;5.32;3.63;;;;;;;-4.04;100.00;61587.84;5087529;28;20448;-77
2024/01/21 04:38:14;;;;;;;4.18;3.13;;;;;;;-4.05;100.00;61583.84;5088243;28;20216;-77
2024/01/21 04:40:42;;;;;;;3.92;2.75;;;;;;;-4.15;100.00;61579.13;5086089;28;20224;-77
2024/01/21 04:43:09;;;;;;;5.47;3.03;;;;;;;-4.08;100.00;61583.28;5087007;28;20289;-77
2024/01/21 04:45:36;;;;;;;3.63;3.25;;;;;;;-4.11;100.00;61580.72;5087484;28;20375;-79
2024/01/21 04:48:04;;;;;;;2.55;2.25;;;;;;;-4.13;100.00;61580.66;5096207;28;20224;-78
2024/01/21 04:50:30;;;;;;;3.65;2.95;;;;;;;-4.20;100.00;61571.53;5088548;28;20231;-77
2024/01/21 04:52:57;;;;;;;2.80;2.60;;;;;;;-4.21;100.00;61573.00;5085245;28;20455;-77
2024/01/21 04:55:24;;;;;;;2.55;2.35;;;;;;;-4.34;100.00;61556.75;5086402;28;20254;-78
2024/01/21 04:57:53;;;;;;;2.83;2.63;;;;;;;-4.37;100.00;61559.16;5081237;28;20563;-76
2024/01/21 05:00:20;;;;;;;3.03;2.83;;;;;;;-4.41;100.00;61552.09;5087151;28;20225;-77
2024/01/21 05:02:47;;;;;;;3.15;2.78;;;;;;;-4.39;100.00;61554.63;5086551;28;20205;-77
2024/01/21 05:05:14;;;;;;;2.25;2.15;;;;;;;-4.44;100.00;61549.53;5088079;28;20232;-77
2024/01/21 05:07:41;;;;;;;2.50;2.30;;;;;;;-4.39;100.00;61554.13;5085085;28;20291;-77
2024/01/21 05:10:09;;;;;;;2.55;2.35;;;;;;;-4.39;100.00;61559.09;5086682;28;20216;-78
2024/01/21 05:12:36;;;;;;;3.42;2.80;;;;;;;-4.35;100.00;61558.72;5091063;28;20260;-78
2024/01/21 05:15:04;;;;;;;3.10;2.75;;;;;;;-4.36;100.00;61554.69;5088761;28;20232;-77
2024/01/21 05:17:31;;;;;;;4.53;3.25;;;;;;;-4.40;100.00;61553.59;5081141;28;20216;-77
2024/01/21 05:19:58;;;;;;;2.90;2.70;;;;;;;-4.45;100.00;61548.00;5078228;28;20596;-77
2024/01/21 05:22:25;;;;;;;4.45;2.50;;;;;;;-4.47;100.00;61541.00;5087142;28;20375;-77
2024/01/21 05:24:52;;;;;;;4.50;2.55;;;;;;;-4.49;100.00;61538.97;5084110;28;20216;-80
2024/01/21 05:27:19;;;;;;;2.60;2.45;;;;;;;-4.52;100.00;61540.88;5079476;28;20224;-78
2024/01/21 05:29:46;;;;;;;3.50;2.60;;;;;;;-4.49;100.00;61549.41;5086909;28;20476;-77
2024/01/21 05:32:15;;;;;;;5.47;3.38;;;;;;;-4.60;100.00;61530.22;5085992;28;20344;-79
2024/01/21 05:34:41;;;;;;;2.92;2.72;;;;;;;-4.68;100.00;61520.59;5090502;28;20220;-78
2024/01/21 05:37:08;;;;;;;3.60;3.05;;;;;;;-4.69;100.00;61521.06;5086280;28;20207;-78
2024/01/21 05:39:35;;;;;;;2.95;2.75;;;;;;;-4.78;100.00;61515.38;5086612;28;20232;-77
2024/01/21 05:42:03;;;;;;;2.47;2.22;;;;;;;-4.72;100.00;61520.97;5078121;28;20203;-77
2024/01/21 05:44:29;;;;;;;6.38;3.17;;;;;;;-4.72;100.00;61519.00;5084423;28;20216;-77
2024/01/21 05:46:57;;;;;;;3.10;2.88;;;;;;;-4.74;100.00;61513.97;5086371;28;20482;-77
2024/01/21 05:49:25;;;;;;;4.05;3.30;;;;;;;-4.73;100.00;61515.50;5085908;28;20236;-78
2024/01/21 05:51:52;;;;;;;2.53;2.25;;;;;;;-4.73;100.00;61519.97;5083921;28;20203;-77
2024/01/21 05:54:19;;;;;;;3.67;1.98;;;;;;;-4.68;100.00;61522.59;5091419;28;20227;-77
2024/01/21 05:56:46;;;;;;;3.42;2.80;;;;;;;-4.69;100.00;61524.03;5086013;28;20200;-77
2024/01/21 05:59:16;;;;;;;2.90;2.00;;;;;;;-4.65;100.00;61528.13;5073074;28;20204;-78
2024/01/21 06:01:42;;;;;;;4.45;2.35;;;;;;;-4.71;100.00;61522.50;5082872;28;20238;-78
2024/01/21 06:04:09;;;;;;;3.67;2.25;;;;;;;-4.73;100.00;61519.97;5083768;28;20204;-78
2024/01/21 06:06:37;;;;;;;8.65;2.22;;;;;;;-4.63;100.00;61530.16;5085311;28;20238;-78
2024/01/21 06:09:04;;;;;;;5.22;3.10;;;;;;;-4.65;100.00;61520.16;5083613;28;20282;-77
2024/01/21 06:11:32;;;;;;;5.70;2.50;;;;;;;-4.64;100.00;61528.63;5078486;28;20403;-78
2024/01/21 06:13:59;;;;;;;4.65;3.28;;;;;;;-4.68;100.00;61524.53;5087522;28;20272;-78
2024/01/21 06:16:26;;;;;;;5.32;3.65;;;;;;;-4.64;100.00;61531.13;5080601;28;20524;-78
2024/01/21 06:18:52;;;;;;;4.03;3.55;;;;;;;-4.63;100.00;61530.16;5079838;28;20235;-78
2024/01/21 06:21:19;;;;;;;4.07;2.90;;;;;;;-4.60;100.00;61528.25;5080673;28;20220;-78
2024/01/21 06:23:48;;;;;;;5.93;3.90;;;;;;;-4.58;100.00;61529.78;5074913;28;20454;-77
2024/01/21 06:26:19;;;;;;;7.03;3.80;;;;;;;-4.57;100.00;61531.31;5073780;28;20225;-78
2024/01/21 06:28:46;;;;;;;3.78;3.45;;;;;;;-4.59;100.00;61534.22;5072345;28;20282;-76
2024/01/21 06:31:12;;;;;;;4.50;3.53;;;;;;;-4.56;100.00;61537.31;5072904;28;20217;-78
2024/01/21 06:33:39;;;;;;;7.97;4.10;;;;;;;-4.56;100.00;61534.31;5071521;28;20224;-79
2024/01/21 06:36:07;;;;;;;5.78;4.43;;;;;;;-4.50;100.00;61540.94;5079806;28;20216;-78
2024/01/21 06:38:33;;;;;;;3.83;3.13;;;;;;;-4.47;100.00;61545.97;5081163;28;20235;-77
2024/01/21 06:41:02;;;;;;;5.55;4.13;;;;;;;-4.41;100.00;61552.09;5074845;28;20244;-78
2024/01/21 06:43:29;;;;;;;5.70;3.40;;;;;;;-4.34;100.00;61556.75;5070601;28;20198;-77
2024/01/21 06:45:55;;;;;;;3.97;3.20;;;;;;;-4.25;100.00;61565.94;5078979;28;20239;-78
2024/01/21 06:48:22;;;;;;;2.60;2.28;;;;;;;-4.18;100.00;61575.56;5074808;28;20266;-77
2024/01/21 06:50:51;;;;;;;2.50;2.30;;;;;;;-4.12;100.00;61584.66;5073466;28;20244;-78
2024/01/21 06:53:17;;;;;;;5.03;3.35;;;;;;;-4.10;100.00;61581.22;5069965;28;20294;-77
2024/01/21 06:55:44;;;;;;;7.75;4.63;;;;;;;-4.05;100.00;61586.84;5075090;28;20217;-78
2024/01/21 06:58:13;;;;;;;15.93;8.07;;;;;;;-3.99;100.00;61587.50;5084898;28;20262;-78
2024/01/21 07:00:40;;;;;;;25.23;8.50;;;;;;;-3.95;100.00;61599.03;5088137;28;20243;-77
2024/01/21 07:03:07;;;;;;;24.02;9.80;;;;;;;-3.89;100.00;61600.19;5079662;28;20218;-78
2024/01/21 07:05:34;;;;;;;19.45;8.57;;;;;;;-3.68;100.00;61622.13;5083004;28;20517;-79
2024/01/21 07:08:01;;;;;;;23.80;8.68;;;;;;;-3.29;100.00;61668.38;5079788;28;20212;-78
2024/01/21 07:10:28;;;;;;;17.10;8.63;;;;;;;-2.82;100.00;61716.94;5077004;28;20216;-77
2024/01/21 07:12:56;;;;;;;11.18;5.82;;;;;;;-2.43;100.00;61751.28;5074057;28;20212;-78
2024/01/21 07:15:26;;;;;;;19.95;7.30;;;;;;;-2.29;100.00;61765.59;5083063;28;20217;-76
2024/01/21 07:17:52;;;;;;;6.72;4.38;;;;;;;-2.22;100.00;61772.25;5077484;28;20513;-77
2024/01/21 07:20:19;;;;;;;7.32;4.75;;;;;;;-2.18;100.00;61781.31;5090066;28;20273;-77
2024/01/21 07:22:47;;;;;;;6.65;3.90;;;;;;;-2.28;100.00;61774.13;5074800;28;20199;-77
2024/01/21 07:25:15;;;;;;;3.92;3.20;;;;;;;-2.03;100.00;61789.69;5078668;28;20256;-76
2024/01/21 07:27:42;;;;;;;4.82;3.65;;;;;;;-1.78;100.00;61817.78;5070763;28;20246;-79
2024/01/21 07:30:10;;;;;;;2.83;2.30;;;;;;;-1.50;100.00;61846.41;5079797;28;20525;-76
2024/01/21 07:32:39;;;;;;;3.05;2.78;;;;;;;-1.43;99.51;61853.03;5084361;28;20243;-77
2024/01/21 07:35:06;;;;;;;4.00;2.75;;;;;;;-1.70;100.00;61825.94;5082784;28;20220;-79
2024/01/21 07:37:33;;;;;;;3.17;2.97;;;;;;;-1.97;100.00;61795.84;5066448;28;20251;-77
2024/01/21 07:40:01;;;;;;;2.92;2.35;;;;;;;-1.88;100.00;61807.53;5071558;28;20282;-77
2024/01/21 07:42:28;;;;;;;3.38;3.08;;;;;;;-1.85;100.00;61813.09;5089877;28;20184;-78
2024/01/21 07:44:55;;;;;;;2.83;2.63;;;;;;;-2.40;100.00;61762.34;5091451;28;20529;-78
2024/01/21 07:47:22;;;;;;;2.22;1.50;;;;;;;-3.20;100.00;61672.59;5088872;28;20208;-78
2024/01/21 07:49:50;;;;;;;3.88;2.40;;;;;;;-3.20;100.00;61678.09;5088141;28;20248;-79
2024/01/21 07:52:17;;;;;;;3.85;2.90;;;;;;;-3.03;100.00;61694.94;5085081;28;20238;-77
2024/01/21 07:54:44;;;;;;;4.07;2.17;;;;;;;-3.10;100.00;61683.34;5084671;28;20543;-79
2024/01/21 07:57:11;;;;;;;6.00;3.03;;;;;;;-3.20;100.00;61675.63;5087712;28;20235;-79
2024/01/21 07:59:38;;;;;;;3.65;3.35;;;;;;;-3.28;100.00;61664.44;5081877;28;20220;-77
2024/01/21 08:02:05;;;;;;;3.55;3.17;;;;;;;-3.49;100.00;61640.50;5077494;28;20202;-78
2024/01/21 08:04:32;;;;;;;4.53;3.10;;;;;;;-3.31;100.00;61661.88;5079662;28;20274;-77
2024/01/21 08:07:00;;;;;;;7.07;4.57;;;;;;;-3.17;100.00;61678.16;5069262;28;20208;-77
2024/01/21 08:09:27;;;;;;;3.00;2.70;;;;;;;-3.05;100.00;61688.44;5077932;28;20231;-77
2024/01/21 08:11:54;;;;;;;4.68;2.90;;;;;;;-2.83;100.00;61712.91;5078932;28;20201;-78
2024/01/21 08:14:21;;;;;;;4.43;3.33;;;;;;;-2.66;100.00;61725.78;5085886;28;20221;-78
2024/01/21 08:16:49;;;;;;;4.60;3.05;;;;;;;-2.52;100.00;61742.59;5087101;28;20344;-78
2024/01/21 08:19:17;;;;;;;3.60;3.30;;;;;;;-2.71;100.00;61723.19;5087691;28;20232;-79
2024/01/21 08:21:44;;;;;;;5.00;3.50;;;;;;;-2.55;100.00;61737.03;5093886;28;20463;-79
2024/01/21 08:24:12;;;;;;;3.45;3.10;;;;;;;-2.51;100.00;61745.59;5092432;28;20544;-79
2024/01/21 08:26:39;;;;;;;4.53;3.60;;;;;;;-2.46;100.00;61748.22;5089033;28;20201;-77
2024/01/21 08:29:06;;;;;;;4.65;3.33;;;;;;;-2.57;100.00;61739.97;5086118;28;20232;-79
2024/01/21 08:31:33;;;;;;;5.88;3.78;;;;;;;-2.65;100.00;61731.28;5087788;28;20205;-76
2024/01/21 08:34:00;;;;;;;4.93;3.47;;;;;;;-2.77;100.00;61714.06;5087379;28;20201;-78
2024/01/21 08:36:27;;;;;;;5.43;3.78;;;;;;;-2.69;100.00;61722.72;5085488;28;20250;-78
2024/01/21 08:38:54;;;;;;;4.18;3.47;;;;;;;-2.61;100.00;61738.41;5086852;28;20408;-78
2024/01/21 08:41:22;;;;;;;4.38;2.58;;;;;;;-2.58;100.00;61738.44;5083824;28;20250;-78
2024/01/21 08:43:49;;;;;;;3.05;2.70;;;;;;;-2.73;100.00;61721.16;5085752;28;20213;-78
2024/01/21 08:46:16;;;;;;;2.67;2.47;;;;;;;-2.67;100.00;61724.25;5089324;28;20280;-80
2024/01/21 08:48:44;;;;;;;3.47;3.20;;;;;;;-2.41;100.00;61753.34;5096855;28;20286;-78
2024/01/21 08:51:12;;;;;;;1.83;1.73;;;;;;;-2.54;100.00;61740.56;5086342;28;20239;-78
2024/01/21 08:53:39;;;;;;;2.70;2.33;;;;;;;-2.51;100.00;61745.59;5087626;28;20272;-79
2024/01/21 08:56:07;;;;;;;3.60;3.22;;;;;;;-2.84;100.00;61709.91;5087558;28;20225;-79
2024/01/21 08:58:35;;;;;;;1.90;1.70;;;;;;;-2.82;100.00;61711.94;5079908;28;20220;-78
2024/01/21 09:01:02;;;;;;;2.53;2.30;;;;;;;-2.76;100.00;61718.06;5086297;28;20220;-78
2024/01/21 09:03:30;;;;;;;2.38;1.98;;;;;;;-2.89;100.00;61701.78;5087665;28;20215;-78
2024/01/21 09:05:57;;;;;;;1.88;1.77;;;;;;;-2.90;100.00;61701.28;5085223;28;20277;-77
2024/01/21 09:08:24;;;;;;;3.65;2.72;;;;;;;-2.97;100.00;61696.13;5086758;28;20201;-78
2024/01/21 09:10:51;;;;;;;3.25;2.67;;;;;;;-2.57;100.00;61735.00;5085892;28;20251;-79
2024/01/21 09:13:18;;;;;;;3.28;2.55;;;;;;;-2.41;100.00;61755.81;5089045;28;20204;-79
2024/01/21 09:15:47;;;;;;;3.92;2.97;;;;;;;-2.52;100.00;61742.59;5079857;28;20216;-77
2024/01/21 09:18:17;;;;;;;3.20;2.50;;;;;;;-2.48;100.00;61748.66;5091048;28;20248;-80
2024/01/21 09:20:48;;;;;;;5.38;3.22;;;;;;;-2.48;100.00;61754.16;5082251;28;20260;-77
2024/01/21 09:23:18;;;;;;;3.38;2.25;;;;;;;-2.39;100.00;61762.84;5094171;28;20258;-80
2024/01/21 09:25:45;;;;;;;3.50;2.95;;;;;;;-2.27;100.00;61767.66;5097254;28;20291;-79
2024/01/21 09:28:12;;;;;;;3.40;3.10;;;;;;;-1.82;100.00;61813.66;5094180;28;20236;-78
2024/01/21 09:30:41;;;;;;;3.55;3.25;;;;;;;-1.53;100.00;61838.34;5090622;28;20232;-80
2024/01/21 09:33:21;;;;;;;4.97;3.67;;;;;;;-1.58;98.12;61835.72;5093929;28;20571;-78
2024/01/21 09:35:50;;;;;;;8.15;3.97;;;;;;;-1.44;96.75;61857.03;5084110;28;20224;-78
2024/01/21 09:38:18;;;;;;;7.13;4.65;;;;;;;-1.60;96.21;61838.16;5127216;23;20268;-84
2024/01/21 09:41:07;;;;;;;6.47;3.95;;;;;;;-1.85;97.25;61810.59;5033492;28;20242;-83
2024/01/21 09:43:43;;;;;;;4.38;3.97;;;;;;;-1.92;97.96;61802.94;5028591;28;20205;-77
2024/01/21 09:46:13;;;;;;;5.43;3.97;;;;;;;-1.68;98.55;61832.97;5032852;28;20229;-82
2024/01/21 09:48:41;;;;;;;4.25;3.92;;;;;;;-1.59;98.21;61836.69;5033390;28;20195;-80
2024/01/21 09:51:14;;;;;;;3.47;3.17;;;;;;;-1.67;96.99;61831.00;5027653;28;20227;-79
2024/01/21 09:53:41;;;;;;;4.93;3.58;;;;;;;-1.52;97.16;61843.84;5023121;28;20213;-77
2024/01/21 09:56:09;;;;;;;5.05;3.72;;;;;;;-1.40;96.17;61856.13;5029644;28;20219;-79
2024/01/21 09:58:39;;;;;;;4.32;3.10;;;;;;;-1.27;96.25;61871.91;5028946;28;20249;-78
2024/01/21 10:01:06;;;;;;;6.60;3.40;;;;;;;-1.35;94.59;61861.25;5025708;28;20536;-77
2024/01/21 10:03:43;;;;;;;3.40;3.17;;;;;;;-1.11;93.75;61880.28;5029825;28;20191;-81
2024/01/21 10:06:19;;;;;;;3.78;3.47;;;;;;;-0.92;91.89;61912.75;5031950;28;20269;-80
2024/01/21 10:08:46;;;;;;;4.95;3.75;;;;;;;-0.97;92.10;61902.13;5029472;28;20190;-79
2024/01/21 10:11:23;;;;;;;7.65;5.78;;;;;;;-0.96;92.31;61905.63;5029112;28;20242;-82
2024/01/21 10:13:50;;;;;;;4.22;3.78;;;;;;;-0.89;89.85;61910.81;5019791;28;20198;-78
2024/01/21 10:16:17;;;;;;;5.70;4.00;;;;;;;-0.69;89.69;61928.78;5035297;28;20211;-80
2024/01/21 10:18:48;;;;;;;4.25;3.35;;;;;;;-0.43;88.31;61957.94;5022155;28;20213;-78
2024/01/21 10:21:16;;;;;;;4.55;3.65;;;;;;;-0.39;88.49;61959.00;5010135;28;20222;-77
2024/01/21 10:23:42;;;;;;;3.70;3.40;;;;;;;-0.31;85.75;61967.72;5006242;28;20206;-77
2024/01/21 10:26:09;;;;;;;3.70;3.30;;;;;;;-0.54;86.26;61948.66;5007531;28;20249;-78
2024/01/21 10:28:36;;;;;;;4.38;3.95;;;;;;;-0.65;85.80;61935.41;5022653;28;20202;-81
2024/01/21 10:31:03;;;;;;;3.75;3.08;;;;;;;-0.61;86.86;61938.97;5018026;28;20370;-78
2024/01/21 10:33:31;;;;;;;5.88;3.85;;;;;;;-0.39;86.18;61961.50;5022988;28;20363;-78
2024/01/21 10:36:00;;;;;;;4.05;3.75;;;;;;;-0.37;84.93;61961.06;5024450;28;20231;-79
2024/01/21 10:38:28;;;;;;;4.60;3.88;;;;;;;-0.04;85.75;61997.38;5025950;28;20230;-80
2024/01/21 10:40:55;;;;;;;6.80;4.00;;;;;;;-0.08;83.79;61993.78;5023109;28;20285;-80
2024/01/21 10:43:21;;;;;;;6.75;4.18;;;;;;;0.01;84.12;61995.00;5023822;28;20198;-80
2024/01/21 10:45:48;;;;;;;6.25;4.38;;;;;;;-0.12;85.21;61989.69;5015330;28;20227;-80
2024/01/21 10:48:15;;;;;;;4.20;3.85;;;;;;;0.18;85.00;62017.41;5015985;28;20198;-80
2024/01/21 10:50:43;;;;;;;9.15;4.95;;;;;;;-0.01;83.73;61997.94;5017546;28;20226;-79
2024/01/21 10:53:13;;;;;;;8.77;4.30;;;;;;;0.02;84.43;62005.53;5017809;28;20376;-79
2024/01/21 10:55:40;;;;;;;5.65;4.90;;;;;;;0.03;83.21;62004.03;5017390;28;20231;-78
2024/01/21 10:58:07;;;;;;;11.00;8.00;;;;;;;0.22;83.41;62019.03;5014088;28;20384;-80
2024/01/21 11:00:34;;;;;;;6.03;4.47;;;;;;;0.36;80.49;62035.34;5019225;28;20238;-79
2024/01/21 11:03:23;;;;;;;6.03;5.03;;;;;;;0.35;80.64;62034.31;5016502;28;20210;-80
2024/01/21 11:05:53;;;;;;;6.35;4.43;;;;;;;0.60;81.83;62060.47;5017010;28;20238;-79
2024/01/21 11:08:22;;;;;;;6.97;5.05;;;;;;;0.89;79.58;62089.69;5013881;28;20443;-78
2024/01/21 11:10:52;;;;;;;6.78;4.68;;;;;;;0.78;78.95;62080.91;5011710;28;20235;-80
2024/01/21 11:13:41;;;;;;;7.40;5.45;;;;;;;0.96;78.13;62101.91;5019101;28;20200;-80
2024/01/21 11:16:08;;;;;;;11.15;7.03;;;;;;;0.64;78.18;62064.56;5017568;28;20590;-78
2024/01/21 11:18:35;;;;;;;9.95;6.05;;;;;;;0.96;75.95;62099.91;5022978;28;20496;-80
2024/01/21 11:21:02;;;;;;;7.03;5.60;;;;;;;0.94;76.42;62092.31;5018393;28;20227;-79
2024/01/21 11:23:30;;;;;;;6.43;5.22;;;;;;;0.47;77.33;62046.63;5021795;28;20611;-78
2024/01/21 11:25:58;;;;;;;8.45;5.80;;;;;;;0.54;79.24;62051.28;5017316;28;20274;-80
2024/01/21 11:28:26;;;;;;;10.82;6.15;;;;;;;0.51;77.93;62051.25;5019149;28;20258;-78